sensor_id;sensor_type;location;lat;lon;timestamp;P1;durP1;ratioP1;P2;durP2;ratioP2
2604;SDS011;1312;50.298;8.520;2023-12-29T00:00:33;3.07;;;2.87;;
2604;SDS011;1312;50.298;8.520;2023-12-29T00:03:01;3.97;;;3.60;;
2604;SDS011;1312;50.298;8.520;2023-12-29T00:05:29;2.70;;;2.50;;
2604;SDS011;1312;50.298;8.520;2023-12-29T00:07:57;3.10;;;2.60;;
2604;SDS011;1312;50.298;8.520;2023-12-29T00:10:26;3.60;;;3.40;;
2604;SDS011;1312;50.298;8.520;2023-12-29T00:12:54;3.03;;;2.83;;
2604;SDS011;1312;50.298;8.520;2023-12-29T00:15:22;3.30;;;3.00;;
2604;SDS011;1312;50.298;8.520;2023-12-29T00:17:51;3.40;;;3.10;;
2604;SDS011;1312;50.298;8.520;2023-12-29T00:20:19;2.90;;;2.70;;
2604;SDS011;1312;50.298;8.520;2023-12-29T00:23:03;3.70;;;3.20;;
2604;SDS011;1312;50.298;8.520;2023-12-29T00:25:31;3.00;;;2.80;;
2604;SDS011;1312;50.298;8.520;2023-12-29T00:27:59;3.23;;;3.03;;
2604;SDS011;1312;50.298;8.520;2023-12-29T00:30:27;3.53;;;3.33;;
2604;SDS011;1312;50.298;8.520;2023-12-29T00:33:17;3.33;;;3.13;;
2604;SDS011;1312;50.298;8.520;2023-12-29T00:35:45;2.73;;;2.53;;
2604;SDS011;1312;50.298;8.520;2023-12-29T00:38:13;3.33;;;3.03;;
2604;SDS011;1312;50.298;8.520;2023-12-29T00:40:41;3.10;;;2.80;;
2604;SDS011;1312;50.298;8.520;2023-12-29T00:43:09;3.30;;;3.00;;
2604;SDS011;1312;50.298;8.520;2023-12-29T00:45:37;3.43;;;3.13;;
2604;SDS011;1312;50.298;8.520;2023-12-29T00:48:05;3.60;;;3.40;;
2604;SDS011;1312;50.298;8.520;2023-12-29T00:50:35;2.97;;;2.77;;
2604;SDS011;1312;50.298;8.520;2023-12-29T00:53:03;3.20;;;3.00;;
2604;SDS011;1312;50.298;8.520;2023-12-29T00:55:31;3.37;;;3.17;;
2604;SDS011;1312;50.298;8.520;2023-12-29T00:57:59;3.70;;;3.47;;
2604;SDS011;1312;50.298;8.520;2023-12-29T01:00:27;3.53;;;3.33;;
2604;SDS011;1312;50.298;8.520;2023-12-29T01:02:55;3.50;;;3.30;;
2604;SDS011;1312;50.298;8.520;2023-12-29T01:05:23;3.30;;;3.00;;
2604;SDS011;1312;50.298;8.520;2023-12-29T01:07:53;3.57;;;3.37;;
2604;SDS011;1312;50.298;8.520;2023-12-29T01:10:21;3.30;;;3.10;;
2604;SDS011;1312;50.298;8.520;2023-12-29T01:12:49;3.40;;;3.20;;
2604;SDS011;1312;50.298;8.520;2023-12-29T01:15:17;4.57;;;3.40;;
2604;SDS011;1312;50.298;8.520;2023-12-29T01:17:45;4.60;;;3.23;;
2604;SDS011;1312;50.298;8.520;2023-12-29T01:20:13;3.40;;;3.10;;
2604;SDS011;1312;50.298;8.520;2023-12-29T01:22:41;3.40;;;3.20;;
2604;SDS011;1312;50.298;8.520;2023-12-29T01:25:10;3.40;;;3.20;;
2604;SDS011;1312;50.298;8.520;2023-12-29T01:27:38;3.70;;;3.40;;
2604;SDS011;1312;50.298;8.520;2023-12-29T01:30:07;4.03;;;3.63;;
2604;SDS011;1312;50.298;8.520;2023-12-29T01:32:35;4.30;;;3.07;;
2604;SDS011;1312;50.298;8.520;2023-12-29T01:35:04;3.33;;;3.13;;
2604;SDS011;1312;50.298;8.520;2023-12-29T01:37:32;3.33;;;3.13;;
2604;SDS011;1312;50.298;8.520;2023-12-29T01:40:00;4.00;;;3.60;;
2604;SDS011;1312;50.298;8.520;2023-12-29T01:42:29;5.90;;;3.43;;
2604;SDS011;1312;50.298;8.520;2023-12-29T01:44:57;3.30;;;3.00;;
2604;SDS011;1312;50.298;8.520;2023-12-29T01:47:25;3.13;;;2.93;;
2604;SDS011;1312;50.298;8.520;2023-12-29T01:49:54;3.37;;;3.07;;
2604;SDS011;1312;50.298;8.520;2023-12-29T01:52:22;4.00;;;3.60;;
2604;SDS011;1312;50.298;8.520;2023-12-29T01:54:50;3.30;;;3.00;;
2604;SDS011;1312;50.298;8.520;2023-12-29T01:57:19;3.30;;;3.00;;
2604;SDS011;1312;50.298;8.520;2023-12-29T01:59:49;5.10;;;3.00;;
2604;SDS011;1312;50.298;8.520;2023-12-29T02:02:17;5.70;;;3.00;;
2604;SDS011;1312;50.298;8.520;2023-12-29T02:04:45;3.23;;;2.90;;
2604;SDS011;1312;50.298;8.520;2023-12-29T02:07:13;3.50;;;3.03;;
2604;SDS011;1312;50.298;8.520;2023-12-29T02:09:42;3.40;;;2.70;;
2604;SDS011;1312;50.298;8.520;2023-12-29T02:12:11;3.40;;;3.10;;
2604;SDS011;1312;50.298;8.520;2023-12-29T02:14:39;3.73;;;3.30;;
2604;SDS011;1312;50.298;8.520;2023-12-29T02:17:10;3.30;;;3.00;;
2604;SDS011;1312;50.298;8.520;2023-12-29T02:19:43;3.13;;;2.80;;
2604;SDS011;1312;50.298;8.520;2023-12-29T02:22:12;3.30;;;3.00;;
2604;SDS011;1312;50.298;8.520;2023-12-29T02:24:44;3.40;;;3.10;;
2604;SDS011;1312;50.298;8.520;2023-12-29T02:27:16;4.07;;;3.20;;
2604;SDS011;1312;50.298;8.520;2023-12-29T02:29:53;2.97;;;2.77;;
2604;SDS011;1312;50.298;8.520;2023-12-29T02:32:29;3.37;;;3.17;;
2604;SDS011;1312;50.298;8.520;2023-12-29T02:34:59;3.30;;;3.10;;
2604;SDS011;1312;50.298;8.520;2023-12-29T02:37:28;2.87;;;2.67;;
2604;SDS011;1312;50.298;8.520;2023-12-29T02:39:58;3.40;;;3.20;;
2604;SDS011;1312;50.298;8.520;2023-12-29T02:42:26;3.43;;;3.13;;
2604;SDS011;1312;50.298;8.520;2023-12-29T02:44:54;3.70;;;3.20;;
2604;SDS011;1312;50.298;8.520;2023-12-29T02:47:22;4.60;;;3.67;;
2604;SDS011;1312;50.298;8.520;2023-12-29T02:49:50;5.43;;;3.90;;
2604;SDS011;1312;50.298;8.520;2023-12-29T02:52:18;5.43;;;4.00;;
2604;SDS011;1312;50.298;8.520;2023-12-29T02:54:46;3.63;;;3.00;;
2604;SDS011;1312;50.298;8.520;2023-12-29T02:57:15;6.53;;;3.23;;
2604;SDS011;1312;50.298;8.520;2023-12-29T02:59:43;4.40;;;3.27;;
2604;SDS011;1312;50.298;8.520;2023-12-29T03:02:11;3.50;;;3.20;;
2604;SDS011;1312;50.298;8.520;2023-12-29T03:04:39;3.87;;;3.47;;
2604;SDS011;1312;50.298;8.520;2023-12-29T03:07:07;5.37;;;3.07;;
2604;SDS011;1312;50.298;8.520;2023-12-29T03:09:35;3.90;;;3.10;;
2604;SDS011;1312;50.298;8.520;2023-12-29T03:12:03;3.33;;;3.13;;
2604;SDS011;1312;50.298;8.520;2023-12-29T03:14:33;3.43;;;3.20;;
2604;SDS011;1312;50.298;8.520;2023-12-29T03:17:01;4.00;;;3.20;;
2604;SDS011;1312;50.298;8.520;2023-12-29T03:19:29;3.73;;;3.00;;
2604;SDS011;1312;50.298;8.520;2023-12-29T03:21:57;4.00;;;3.37;;
2604;SDS011;1312;50.298;8.520;2023-12-29T03:24:25;3.17;;;2.97;;
2604;SDS011;1312;50.298;8.520;2023-12-29T03:26:53;4.53;;;3.10;;
2604;SDS011;1312;50.298;8.520;2023-12-29T03:29:21;3.63;;;3.17;;
2604;SDS011;1312;50.298;8.520;2023-12-29T03:31:50;3.50;;;3.20;;
2604;SDS011;1312;50.298;8.520;2023-12-29T03:34:18;3.40;;;3.10;;
2604;SDS011;1312;50.298;8.520;2023-12-29T03:36:47;3.70;;;3.40;;
2604;SDS011;1312;50.298;8.520;2023-12-29T03:39:15;3.33;;;2.90;;
2604;SDS011;1312;50.298;8.520;2023-12-29T03:41:43;3.43;;;3.13;;
2604;SDS011;1312;50.298;8.520;2023-12-29T03:44:11;3.37;;;3.17;;
2604;SDS011;1312;50.298;8.520;2023-12-29T03:46:39;4.70;;;3.10;;
2604;SDS011;1312;50.298;8.520;2023-12-29T03:49:08;3.20;;;3.00;;
2604;SDS011;1312;50.298;8.520;2023-12-29T03:51:36;3.43;;;3.13;;
2604;SDS011;1312;50.298;8.520;2023-12-29T03:54:04;4.73;;;3.63;;
2604;SDS011;1312;50.298;8.520;2023-12-29T03:56:32;3.80;;;3.40;;
2604;SDS011;1312;50.298;8.520;2023-12-29T03:59:00;4.00;;;2.80;;
2604;SDS011;1312;50.298;8.520;2023-12-29T04:01:28;3.63;;;3.23;;
2604;SDS011;1312;50.298;8.520;2023-12-29T04:03:56;3.80;;;3.17;;
2604;SDS011;1312;50.298;8.520;2023-12-29T04:06:26;3.73;;;3.40;;
2604;SDS011;1312;50.298;8.520;2023-12-29T04:08:53;3.70;;;3.40;;
2604;SDS011;1312;50.298;8.520;2023-12-29T04:11:20;4.00;;;3.13;;
2604;SDS011;1312;50.298;8.520;2023-12-29T04:13:48;3.20;;;3.00;;
2604;SDS011;1312;50.298;8.520;2023-12-29T04:16:16;3.60;;;3.30;;
2604;SDS011;1312;50.298;8.520;2023-12-29T04:18:44;3.73;;;3.43;;
2604;SDS011;1312;50.298;8.520;2023-12-29T04:21:13;3.63;;;3.33;;
2604;SDS011;1312;50.298;8.520;2023-12-29T04:23:42;3.83;;;3.43;;
2604;SDS011;1312;50.298;8.520;2023-12-29T04:26:10;3.47;;;3.23;;
2604;SDS011;1312;50.298;8.520;2023-12-29T04:28:38;3.70;;;3.37;;
2604;SDS011;1312;50.298;8.520;2023-12-29T04:31:06;7.57;;;3.40;;
2604;SDS011;1312;50.298;8.520;2023-12-29T04:33:34;3.80;;;3.50;;
2604;SDS011;1312;50.298;8.520;2023-12-29T04:36:02;4.30;;;3.80;;
2604;SDS011;1312;50.298;8.520;2023-12-29T04:38:30;6.40;;;3.47;;
2604;SDS011;1312;50.298;8.520;2023-12-29T04:41:00;3.80;;;3.40;;
2604;SDS011;1312;50.298;8.520;2023-12-29T04:43:27;4.40;;;3.57;;
2604;SDS011;1312;50.298;8.520;2023-12-29T04:45:55;3.40;;;3.10;;
2604;SDS011;1312;50.298;8.520;2023-12-29T04:48:23;5.20;;;3.70;;
2604;SDS011;1312;50.298;8.520;2023-12-29T04:50:51;4.43;;;3.67;;
2604;SDS011;1312;50.298;8.520;2023-12-29T04:53:19;5.07;;;3.27;;
2604;SDS011;1312;50.298;8.520;2023-12-29T04:55:47;3.40;;;3.10;;
2604;SDS011;1312;50.298;8.520;2023-12-29T04:58:16;3.77;;;3.40;;
2604;SDS011;1312;50.298;8.520;2023-12-29T05:00:44;5.57;;;3.20;;
2604;SDS011;1312;50.298;8.520;2023-12-29T05:03:12;3.67;;;3.37;;
2604;SDS011;1312;50.298;8.520;2023-12-29T05:05:40;3.93;;;3.10;;
2604;SDS011;1312;50.298;8.520;2023-12-29T05:08:08;3.70;;;3.10;;
2604;SDS011;1312;50.298;8.520;2023-12-29T05:10:37;3.40;;;3.10;;
2604;SDS011;1312;50.298;8.520;2023-12-29T05:13:05;5.70;;;3.57;;
2604;SDS011;1312;50.298;8.520;2023-12-29T05:15:34;4.30;;;3.50;;
2604;SDS011;1312;50.298;8.520;2023-12-29T05:18:02;4.07;;;3.67;;
2604;SDS011;1312;50.298;8.520;2023-12-29T05:20:31;4.13;;;3.73;;
2604;SDS011;1312;50.298;8.520;2023-12-29T05:22:59;3.50;;;3.30;;
2604;SDS011;1312;50.298;8.520;2023-12-29T05:25:27;3.93;;;3.63;;
2604;SDS011;1312;50.298;8.520;2023-12-29T05:27:55;3.80;;;3.50;;
2604;SDS011;1312;50.298;8.520;2023-12-29T05:30:23;3.53;;;3.23;;
2604;SDS011;1312;50.298;8.520;2023-12-29T05:32:54;3.60;;;3.40;;
2604;SDS011;1312;50.298;8.520;2023-12-29T05:35:22;3.50;;;3.30;;
2604;SDS011;1312;50.298;8.520;2023-12-29T05:37:50;4.67;;;3.47;;
2604;SDS011;1312;50.298;8.520;2023-12-29T05:40:18;4.83;;;3.43;;
2604;SDS011;1312;50.298;8.520;2023-12-29T05:42:46;3.90;;;3.50;;
2604;SDS011;1312;50.298;8.520;2023-12-29T05:45:15;3.77;;;3.40;;
2604;SDS011;1312;50.298;8.520;2023-12-29T05:47:43;3.70;;;3.20;;
2604;SDS011;1312;50.298;8.520;2023-12-29T05:50:13;4.40;;;3.83;;
2604;SDS011;1312;50.298;8.520;2023-12-29T05:52:41;2.70;;;2.50;;
2604;SDS011;1312;50.298;8.520;2023-12-29T05:55:09;4.27;;;3.10;;
2604;SDS011;1312;50.298;8.520;2023-12-29T05:57:37;5.70;;;3.50;;
2604;SDS011;1312;50.298;8.520;2023-12-29T06:00:06;3.20;;;3.00;;
2604;SDS011;1312;50.298;8.520;2023-12-29T06:02:40;3.33;;;3.13;;
2604;SDS011;1312;50.298;8.520;2023-12-29T06:05:10;3.43;;;3.13;;
2604;SDS011;1312;50.298;8.520;2023-12-29T06:07:40;3.50;;;3.20;;
2604;SDS011;1312;50.298;8.520;2023-12-29T06:10:08;7.30;;;3.47;;
2604;SDS011;1312;50.298;8.520;2023-12-29T06:12:36;4.97;;;3.20;;
2604;SDS011;1312;50.298;8.520;2023-12-29T06:15:05;3.70;;;3.40;;
2604;SDS011;1312;50.298;8.520;2023-12-29T06:17:33;4.00;;;3.00;;
2604;SDS011;1312;50.298;8.520;2023-12-29T06:20:02;3.60;;;2.93;;
2604;SDS011;1312;50.298;8.520;2023-12-29T06:22:32;4.03;;;3.23;;
2604;SDS011;1312;50.298;8.520;2023-12-29T06:25:02;9.40;;;3.60;;
2604;SDS011;1312;50.298;8.520;2023-12-29T06:27:30;4.83;;;3.30;;
2604;SDS011;1312;50.298;8.520;2023-12-29T06:30:01;4.40;;;2.90;;
2604;SDS011;1312;50.298;8.520;2023-12-29T06:32:29;5.13;;;3.27;;
2604;SDS011;1312;50.298;8.520;2023-12-29T06:34:58;4.13;;;2.73;;
2604;SDS011;1312;50.298;8.520;2023-12-29T06:37:26;3.00;;;2.70;;
2604;SDS011;1312;50.298;8.520;2023-12-29T06:39:54;3.27;;;2.90;;
2604;SDS011;1312;50.298;8.520;2023-12-29T06:42:23;4.00;;;3.10;;
2604;SDS011;1312;50.298;8.520;2023-12-29T06:44:51;3.53;;;3.07;;
2604;SDS011;1312;50.298;8.520;2023-12-29T06:47:19;4.03;;;3.70;;
2604;SDS011;1312;50.298;8.520;2023-12-29T06:49:47;3.60;;;2.80;;
2604;SDS011;1312;50.298;8.520;2023-12-29T06:52:16;3.10;;;2.80;;
2604;SDS011;1312;50.298;8.520;2023-12-29T06:54:43;2.90;;;2.70;;
2604;SDS011;1312;50.298;8.520;2023-12-29T06:57:11;3.13;;;2.80;;
2604;SDS011;1312;50.298;8.520;2023-12-29T06:59:42;4.53;;;3.00;;
2604;SDS011;1312;50.298;8.520;2023-12-29T07:02:10;2.93;;;2.63;;
2604;SDS011;1312;50.298;8.520;2023-12-29T07:04:40;3.07;;;2.87;;
2604;SDS011;1312;50.298;8.520;2023-12-29T07:07:09;3.20;;;2.90;;
2604;SDS011;1312;50.298;8.520;2023-12-29T07:09:38;6.20;;;3.57;;
2604;SDS011;1312;50.298;8.520;2023-12-29T07:12:07;4.63;;;2.87;;
2604;SDS011;1312;50.298;8.520;2023-12-29T07:14:36;3.83;;;3.00;;
2604;SDS011;1312;50.298;8.520;2023-12-29T07:17:06;3.83;;;2.87;;
2604;SDS011;1312;50.298;8.520;2023-12-29T07:19:34;3.87;;;2.73;;
2604;SDS011;1312;50.298;8.520;2023-12-29T07:22:04;3.43;;;3.13;;
2604;SDS011;1312;50.298;8.520;2023-12-29T07:24:34;3.60;;;3.30;;
2604;SDS011;1312;50.298;8.520;2023-12-29T07:27:03;3.13;;;2.90;;
2604;SDS011;1312;50.298;8.520;2023-12-29T07:29:31;3.87;;;3.07;;
2604;SDS011;1312;50.298;8.520;2023-12-29T07:31:59;2.93;;;2.50;;
2604;SDS011;1312;50.298;8.520;2023-12-29T07:34:28;2.83;;;2.60;;
2604;SDS011;1312;50.298;8.520;2023-12-29T07:36:57;9.37;;;7.10;;
2604;SDS011;1312;50.298;8.520;2023-12-29T07:39:25;4.20;;;3.67;;
2604;SDS011;1312;50.298;8.520;2023-12-29T07:41:54;3.63;;;2.87;;
2604;SDS011;1312;50.298;8.520;2023-12-29T07:44:21;3.00;;;2.73;;
2604;SDS011;1312;50.298;8.520;2023-12-29T07:46:50;5.73;;;2.80;;
2604;SDS011;1312;50.298;8.520;2023-12-29T07:49:18;3.30;;;2.90;;
2604;SDS011;1312;50.298;8.520;2023-12-29T07:51:47;5.53;;;3.67;;
2604;SDS011;1312;50.298;8.520;2023-12-29T07:54:15;3.93;;;3.13;;
2604;SDS011;1312;50.298;8.520;2023-12-29T07:56:43;3.47;;;2.70;;
2604;SDS011;1312;50.298;8.520;2023-12-29T07:59:11;4.57;;;3.67;;
2604;SDS011;1312;50.298;8.520;2023-12-29T08:01:39;6.83;;;3.47;;
2604;SDS011;1312;50.298;8.520;2023-12-29T08:04:07;4.37;;;3.80;;
2604;SDS011;1312;50.298;8.520;2023-12-29T08:06:37;4.80;;;3.97;;
2604;SDS011;1312;50.298;8.520;2023-12-29T08:09:07;4.67;;;3.00;;
2604;SDS011;1312;50.298;8.520;2023-12-29T08:11:35;4.53;;;3.00;;
2604;SDS011;1312;50.298;8.520;2023-12-29T08:14:03;2.90;;;2.70;;
2604;SDS011;1312;50.298;8.520;2023-12-29T08:16:31;3.00;;;2.70;;
2604;SDS011;1312;50.298;8.520;2023-12-29T08:18:59;3.00;;;2.80;;
2604;SDS011;1312;50.298;8.520;2023-12-29T08:21:27;3.67;;;3.37;;
2604;SDS011;1312;50.298;8.520;2023-12-29T08:23:55;4.70;;;3.20;;
2604;SDS011;1312;50.298;8.520;2023-12-29T08:26:24;3.47;;;3.17;;
2604;SDS011;1312;50.298;8.520;2023-12-29T08:28:52;3.43;;;2.90;;
2604;SDS011;1312;50.298;8.520;2023-12-29T08:31:20;4.03;;;3.63;;
2604;SDS011;1312;50.298;8.520;2023-12-29T08:33:49;3.73;;;3.53;;
2604;SDS011;1312;50.298;8.520;2023-12-29T08:36:18;4.20;;;2.90;;
2604;SDS011;1312;50.298;8.520;2023-12-29T08:38:46;2.73;;;2.53;;
2604;SDS011;1312;50.298;8.520;2023-12-29T08:41:15;2.70;;;2.50;;
2604;SDS011;1312;50.298;8.520;2023-12-29T08:43:45;4.20;;;2.83;;
2604;SDS011;1312;50.298;8.520;2023-12-29T08:46:13;3.60;;;3.30;;
2604;SDS011;1312;50.298;8.520;2023-12-29T08:48:41;3.10;;;2.70;;
2604;SDS011;1312;50.298;8.520;2023-12-29T08:51:09;2.60;;;2.40;;
2604;SDS011;1312;50.298;8.520;2023-12-29T08:53:37;3.30;;;3.00;;
2604;SDS011;1312;50.298;8.520;2023-12-29T08:56:05;3.67;;;2.97;;
2604;SDS011;1312;50.298;8.520;2023-12-29T08:58:33;3.23;;;2.87;;
2604;SDS011;1312;50.298;8.520;2023-12-29T09:01:03;3.10;;;2.50;;
2604;SDS011;1312;50.298;8.520;2023-12-29T09:03:31;3.43;;;2.77;;
2604;SDS011;1312;50.298;8.520;2023-12-29T09:05:59;3.03;;;2.67;;
2604;SDS011;1312;50.298;8.520;2023-12-29T09:08:27;5.50;;;2.97;;
2604;SDS011;1312;50.298;8.520;2023-12-29T09:10:55;4.40;;;3.10;;
2604;SDS011;1312;50.298;8.520;2023-12-29T09:13:23;3.40;;;3.10;;
2604;SDS011;1312;50.298;8.520;2023-12-29T09:15:53;3.43;;;3.13;;
2604;SDS011;1312;50.298;8.520;2023-12-29T09:18:23;3.50;;;3.30;;
2604;SDS011;1312;50.298;8.520;2023-12-29T09:20:51;3.43;;;3.13;;
2604;SDS011;1312;50.298;8.520;2023-12-29T09:23:19;4.70;;;2.90;;
2604;SDS011;1312;50.298;8.520;2023-12-29T09:25:47;4.07;;;2.67;;
2604;SDS011;1312;50.298;8.520;2023-12-29T09:28:15;3.03;;;2.80;;
2604;SDS011;1312;50.298;8.520;2023-12-29T09:30:43;2.90;;;2.70;;
2604;SDS011;1312;50.298;8.520;2023-12-29T09:33:11;3.20;;;2.90;;
2604;SDS011;1312;50.298;8.520;2023-12-29T09:35:40;4.20;;;2.47;;
2604;SDS011;1312;50.298;8.520;2023-12-29T09:38:08;2.90;;;2.60;;
2604;SDS011;1312;50.298;8.520;2023-12-29T09:40:36;3.67;;;3.37;;
2604;SDS011;1312;50.298;8.520;2023-12-29T09:43:04;3.87;;;3.40;;
2604;SDS011;1312;50.298;8.520;2023-12-29T09:45:33;4.77;;;3.20;;
2604;SDS011;1312;50.298;8.520;2023-12-29T09:48:05;4.53;;;3.20;;
2604;SDS011;1312;50.298;8.520;2023-12-29T09:50:36;3.63;;;3.43;;
2604;SDS011;1312;50.298;8.520;2023-12-29T09:53:05;4.43;;;3.40;;
2604;SDS011;1312;50.298;8.520;2023-12-29T09:55:36;3.23;;;2.97;;
2604;SDS011;1312;50.298;8.520;2023-12-29T09:58:05;5.17;;;2.83;;
2604;SDS011;1312;50.298;8.520;2023-12-29T10:00:35;3.03;;;2.83;;
2604;SDS011;1312;50.298;8.520;2023-12-29T10:03:05;3.07;;;2.77;;
2604;SDS011;1312;50.298;8.520;2023-12-29T10:05:33;4.40;;;3.23;;
2604;SDS011;1312;50.298;8.520;2023-12-29T10:08:01;4.13;;;2.70;;
2604;SDS011;1312;50.298;8.520;2023-12-29T10:10:34;2.90;;;2.70;;
2604;SDS011;1312;50.298;8.520;2023-12-29T10:13:05;4.10;;;2.90;;
2604;SDS011;1312;50.298;8.520;2023-12-29T10:15:37;3.73;;;2.90;;
2604;SDS011;1312;50.298;8.520;2023-12-29T10:18:18;3.10;;;2.80;;
2604;SDS011;1312;50.298;8.520;2023-12-29T10:20:54;3.13;;;2.67;;
2604;SDS011;1312;50.298;8.520;2023-12-29T10:23:28;3.00;;;2.70;;
2604;SDS011;1312;50.298;8.520;2023-12-29T10:26:02;2.53;;;2.33;;
2604;SDS011;1312;50.298;8.520;2023-12-29T10:28:31;3.50;;;2.70;;
2604;SDS011;1312;50.298;8.520;2023-12-29T10:30:59;3.17;;;2.97;;
2604;SDS011;1312;50.298;8.520;2023-12-29T10:33:27;3.20;;;2.57;;
2604;SDS011;1312;50.298;8.520;2023-12-29T10:35:58;3.67;;;3.37;;
2604;SDS011;1312;50.298;8.520;2023-12-29T10:38:30;2.50;;;2.30;;
2604;SDS011;1312;50.298;8.520;2023-12-29T10:41:11;2.80;;;2.60;;
2604;SDS011;1312;50.298;8.520;2023-12-29T10:43:42;2.80;;;2.33;;
2604;SDS011;1312;50.298;8.520;2023-12-29T10:46:13;2.63;;;2.43;;
2604;SDS011;1312;50.298;8.520;2023-12-29T10:48:41;2.40;;;2.30;;
2604;SDS011;1312;50.298;8.520;2023-12-29T10:51:09;2.50;;;2.30;;
2604;SDS011;1312;50.298;8.520;2023-12-29T10:53:37;2.73;;;2.47;;
2604;SDS011;1312;50.298;8.520;2023-12-29T10:56:16;3.87;;;2.60;;
2604;SDS011;1312;50.298;8.520;2023-12-29T10:58:56;2.50;;;2.20;;
2604;SDS011;1312;50.298;8.520;2023-12-29T11:01:27;4.17;;;2.07;;
2604;SDS011;1312;50.298;8.520;2023-12-29T11:03:58;2.53;;;2.07;;
2604;SDS011;1312;50.298;8.520;2023-12-29T11:06:27;3.10;;;2.20;;
2604;SDS011;1312;50.298;8.520;2023-12-29T11:08:56;2.90;;;2.60;;
2604;SDS011;1312;50.298;8.520;2023-12-29T11:11:25;2.67;;;2.47;;
2604;SDS011;1312;50.298;8.520;2023-12-29T11:13:54;2.53;;;2.33;;
2604;SDS011;1312;50.298;8.520;2023-12-29T11:16:23;3.40;;;2.90;;
2604;SDS011;1312;50.298;8.520;2023-12-29T11:18:52;2.90;;;2.70;;
2604;SDS011;1312;50.298;8.520;2023-12-29T11:21:23;3.00;;;2.90;;
2604;SDS011;1312;50.298;8.520;2023-12-29T11:23:54;2.67;;;2.47;;
2604;SDS011;1312;50.298;8.520;2023-12-29T11:26:22;3.67;;;3.37;;
2604;SDS011;1312;50.298;8.520;2023-12-29T11:28:52;2.33;;;2.17;;
2604;SDS011;1312;50.298;8.520;2023-12-29T11:31:21;4.17;;;2.37;;
2604;SDS011;1312;50.298;8.520;2023-12-29T11:33:50;3.60;;;3.40;;
2604;SDS011;1312;50.298;8.520;2023-12-29T11:36:25;3.80;;;3.60;;
2604;SDS011;1312;50.298;8.520;2023-12-29T11:39:01;3.97;;;3.00;;
2604;SDS011;1312;50.298;8.520;2023-12-29T11:41:40;3.30;;;3.10;;
2604;SDS011;1312;50.298;8.520;2023-12-29T11:44:16;4.03;;;3.73;;
2604;SDS011;1312;50.298;8.520;2023-12-29T11:46:53;3.30;;;3.10;;
2604;SDS011;1312;50.298;8.520;2023-12-29T11:49:21;4.03;;;3.73;;
2604;SDS011;1312;50.298;8.520;2023-12-29T11:51:49;3.83;;;3.53;;
2604;SDS011;1312;50.298;8.520;2023-12-29T11:54:21;3.60;;;3.40;;
2604;SDS011;1312;50.298;8.520;2023-12-29T11:56:50;4.70;;;2.73;;
2604;SDS011;1312;50.298;8.520;2023-12-29T11:59:21;3.27;;;2.97;;
2604;SDS011;1312;50.298;8.520;2023-12-29T12:01:51;3.17;;;2.60;;
2604;SDS011;1312;50.298;8.520;2023-12-29T12:04:34;2.30;;;2.20;;
2604;SDS011;1312;50.298;8.520;2023-12-29T12:07:02;2.27;;;2.13;;
2604;SDS011;1312;50.298;8.520;2023-12-29T12:09:33;3.20;;;3.00;;
2604;SDS011;1312;50.298;8.520;2023-12-29T12:12:01;3.50;;;3.20;;
2604;SDS011;1312;50.298;8.520;2023-12-29T12:14:51;3.10;;;2.90;;
2604;SDS011;1312;50.298;8.520;2023-12-29T12:17:26;3.03;;;2.80;;
2604;SDS011;1312;50.298;8.520;2023-12-29T12:19:58;2.80;;;2.70;;
2604;SDS011;1312;50.298;8.520;2023-12-29T12:22:31;3.30;;;3.10;;
2604;SDS011;1312;50.298;8.520;2023-12-29T12:25:04;3.57;;;3.30;;
2604;SDS011;1312;50.298;8.520;2023-12-29T12:27:36;3.53;;;3.33;;
2604;SDS011;1312;50.298;8.520;2023-12-29T12:30:07;3.40;;;3.10;;
2604;SDS011;1312;50.298;8.520;2023-12-29T12:32:37;3.40;;;3.13;;
2604;SDS011;1312;50.298;8.520;2023-12-29T12:35:05;4.30;;;3.90;;
2604;SDS011;1312;50.298;8.520;2023-12-29T12:37:44;3.00;;;2.80;;
2604;SDS011;1312;50.298;8.520;2023-12-29T12:40:23;3.30;;;2.57;;
2604;SDS011;1312;50.298;8.520;2023-12-29T12:42:52;3.20;;;2.60;;
2604;SDS011;1312;50.298;8.520;2023-12-29T12:45:21;2.70;;;2.50;;
2604;SDS011;1312;50.298;8.520;2023-12-29T12:47:52;2.40;;;2.20;;
2604;SDS011;1312;50.298;8.520;2023-12-29T12:50:26;2.70;;;2.50;;
2604;SDS011;1312;50.298;8.520;2023-12-29T12:52:55;2.53;;;2.30;;
2604;SDS011;1312;50.298;8.520;2023-12-29T12:55:24;2.40;;;2.20;;
2604;SDS011;1312;50.298;8.520;2023-12-29T12:57:53;3.30;;;2.37;;
2604;SDS011;1312;50.298;8.520;2023-12-29T13:00:24;3.07;;;2.20;;
2604;SDS011;1312;50.298;8.520;2023-12-29T13:02:53;2.13;;;2.03;;
2604;SDS011;1312;50.298;8.520;2023-12-29T13:05:21;4.07;;;2.40;;
2604;SDS011;1312;50.298;8.520;2023-12-29T13:07:52;2.10;;;1.90;;
2604;SDS011;1312;50.298;8.520;2023-12-29T13:10:22;2.07;;;1.97;;
2604;SDS011;1312;50.298;8.520;2023-12-29T13:12:53;2.30;;;2.10;;
2604;SDS011;1312;50.298;8.520;2023-12-29T13:15:21;2.37;;;2.23;;
2604;SDS011;1312;50.298;8.520;2023-12-29T13:17:51;1.90;;;1.80;;
2604;SDS011;1312;50.298;8.520;2023-12-29T13:20:20;2.70;;;2.03;;
2604;SDS011;1312;50.298;8.520;2023-12-29T13:22:48;2.57;;;2.03;;
2604;SDS011;1312;50.298;8.520;2023-12-29T13:25:18;3.13;;;2.20;;
2604;SDS011;1312;50.298;8.520;2023-12-29T13:27:47;2.13;;;2.03;;
2604;SDS011;1312;50.298;8.520;2023-12-29T13:30:17;2.33;;;1.80;;
2604;SDS011;1312;50.298;8.520;2023-12-29T13:32:46;1.90;;;1.80;;
2604;SDS011;1312;50.298;8.520;2023-12-29T13:35:18;2.10;;;2.00;;
2604;SDS011;1312;50.298;8.520;2023-12-29T13:37:51;3.10;;;2.23;;
2604;SDS011;1312;50.298;8.520;2023-12-29T13:40:27;2.40;;;2.20;;
2604;SDS011;1312;50.298;8.520;2023-12-29T13:43:02;2.77;;;2.57;;
2604;SDS011;1312;50.298;8.520;2023-12-29T13:45:33;2.10;;;2.00;;
2604;SDS011;1312;50.298;8.520;2023-12-29T13:48:07;2.13;;;1.90;;
2604;SDS011;1312;50.298;8.520;2023-12-29T13:50:37;4.87;;;2.07;;
2604;SDS011;1312;50.298;8.520;2023-12-29T13:53:07;2.40;;;2.20;;
2604;SDS011;1312;50.298;8.520;2023-12-29T13:55:35;3.60;;;2.60;;
2604;SDS011;1312;50.298;8.520;2023-12-29T13:58:08;2.43;;;2.30;;
2604;SDS011;1312;50.298;8.520;2023-12-29T14:00:36;2.50;;;2.30;;
2604;SDS011;1312;50.298;8.520;2023-12-29T14:03:09;2.60;;;2.40;;
2604;SDS011;1312;50.298;8.520;2023-12-29T14:05:47;2.80;;;2.60;;
2604;SDS011;1312;50.298;8.520;2023-12-29T14:08:19;2.47;;;2.27;;
2604;SDS011;1312;50.298;8.520;2023-12-29T14:10:52;2.87;;;2.67;;
2604;SDS011;1312;50.298;8.520;2023-12-29T14:13:20;2.50;;;2.30;;
2604;SDS011;1312;50.298;8.520;2023-12-29T14:15:49;2.30;;;1.93;;
2604;SDS011;1312;50.298;8.520;2023-12-29T14:18:24;2.10;;;1.83;;
2604;SDS011;1312;50.298;8.520;2023-12-29T14:21:05;4.30;;;2.40;;
2604;SDS011;1312;50.298;8.520;2023-12-29T14:23:57;2.37;;;2.17;;
2604;SDS011;1312;50.298;8.520;2023-12-29T14:26:26;2.30;;;2.10;;
2604;SDS011;1312;50.298;8.520;2023-12-29T14:29:01;1.90;;;1.80;;
2604;SDS011;1312;50.298;8.520;2023-12-29T14:31:31;2.93;;;2.73;;
2604;SDS011;1312;50.298;8.520;2023-12-29T14:34:01;2.17;;;2.07;;
2604;SDS011;1312;50.298;8.520;2023-12-29T14:36:31;2.63;;;2.30;;
2604;SDS011;1312;50.298;8.520;2023-12-29T14:39:00;2.43;;;2.10;;
2604;SDS011;1312;50.298;8.520;2023-12-29T14:41:29;2.70;;;2.50;;
2604;SDS011;1312;50.298;8.520;2023-12-29T14:43:57;1.93;;;1.80;;
2604;SDS011;1312;50.298;8.520;2023-12-29T14:46:25;1.93;;;1.70;;
2604;SDS011;1312;50.298;8.520;2023-12-29T14:48:53;4.13;;;1.80;;
2604;SDS011;1312;50.298;8.520;2023-12-29T14:51:23;2.67;;;2.47;;
2604;SDS011;1312;50.298;8.520;2023-12-29T14:53:53;2.40;;;2.20;;
2604;SDS011;1312;50.298;8.520;2023-12-29T14:56:21;2.40;;;2.20;;
2604;SDS011;1312;50.298;8.520;2023-12-29T14:58:48;1.87;;;1.77;;
2604;SDS011;1312;50.298;8.520;2023-12-29T15:01:16;2.83;;;2.30;;
2604;SDS011;1312;50.298;8.520;2023-12-29T15:03:45;2.10;;;2.00;;
2604;SDS011;1312;50.298;8.520;2023-12-29T15:06:13;2.60;;;2.40;;
2604;SDS011;1312;50.298;8.520;2023-12-29T15:08:41;2.17;;;2.00;;
2604;SDS011;1312;50.298;8.520;2023-12-29T15:11:10;2.50;;;2.30;;
2604;SDS011;1312;50.298;8.520;2023-12-29T15:13:38;4.43;;;2.30;;
2604;SDS011;1312;50.298;8.520;2023-12-29T15:16:06;1.97;;;1.87;;
2604;SDS011;1312;50.298;8.520;2023-12-29T15:18:34;2.50;;;2.30;;
2604;SDS011;1312;50.298;8.520;2023-12-29T15:21:02;4.03;;;2.47;;
2604;SDS011;1312;50.298;8.520;2023-12-29T15:23:30;2.50;;;2.30;;
2604;SDS011;1312;50.298;8.520;2023-12-29T15:25:58;2.47;;;2.27;;
2604;SDS011;1312;50.298;8.520;2023-12-29T15:28:28;2.97;;;2.53;;